Time;durP1;ratioP1;P1;durP2;ratioP2;P2;SDS_P1;SDS_P2;PMS_P1;PMS_P2;Temp;Humidity;BMP_temperature;BMP_pressure;BME280_temperature;BME280_humidity;BME280_pressure;Samples;Min_cycle;Max_cycle;Signal;HPM_P1;HPM_P2
2022/04/09 00:00:41;;;;;;;3.55;1.20;;;10.30;40.10;;;;;;5054082;28;20674;-34
2022/04/09 00:03:07;;;;;;;2.38;1.55;;;10.30;40.30;;;;;;5054121;28;20256;-34
2022/04/09 00:05:33;;;;;;;2.83;1.60;;;10.30;40.50;;;;;;5054022;28;20266;-34
2022/04/09 00:07:59;;;;;;;6.30;1.47;;;10.30;40.50;;;;;;5054336;28;20420;-34
2022/04/09 00:10:25;;;;;;;2.30;1.08;;;10.30;40.60;;;;;;5054093;28;20177;-34
2022/04/09 00:12:50;;;;;;;1.98;1.40;;;10.20;40.90;;;;;;5053859;28;20630;-34
2022/04/09 00:15:16;;;;;;;2.33;0.87;;;10.20;41.50;;;;;;5054298;28;20196;-34
2022/04/09 00:17:44;;;;;;;4.00;1.37;;;10.00;41.70;;;;;;5053838;28;20758;-33
2022/04/09 00:20:12;;;;;;;3.45;1.40;;;9.90;41.80;;;;;;5053718;28;20180;-34
2022/04/09 00:22:39;;;;;;;2.63;1.05;;;9.90;41.80;;;;;;5053665;28;20211;-34
2022/04/09 00:25:07;;;;;;;1.85;1.17;;;9.90;42.10;;;;;;5054057;28;20179;-34
2022/04/09 00:27:33;;;;;;;2.88;0.98;;;10.00;42.30;;;;;;5052361;28;20181;-34
2022/04/09 00:29:59;;;;;;;2.07;1.07;;;9.90;43.00;;;;;;5053876;28;20654;-34
2022/04/09 00:32:24;;;;;;;2.67;1.30;;;9.80;43.20;;;;;;5053299;28;20563;-33
2022/04/09 00:34:50;;;;;;;2.37;0.70;;;9.80;42.70;;;;;;5053495;28;20439;-34
2022/04/09 00:37:16;;;;;;;1.70;1.27;;;9.80;43.10;;;;;;5053728;28;20212;-34
2022/04/09 00:39:41;;;;;;;2.57;1.30;;;9.60;43.70;;;;;;5053494;28;20173;-34
2022/04/09 00:42:14;;;;;;;2.50;1.40;;;9.50;43.90;;;;;;5053321;28;20440;-34
2022/04/09 00:44:40;;;;;;;1.48;0.88;;;9.40;43.90;;;;;;5053391;28;20728;-34
2022/04/09 00:47:06;;;;;;;1.87;1.03;;;9.50;43.50;;;;;;5053310;28;20272;-34
2022/04/09 00:49:32;;;;;;;2.90;1.40;;;9.60;43.20;;;;;;5053521;28;20527;-34
2022/04/09 00:52:00;;;;;;;1.67;0.82;;;9.60;43.10;;;;;;5052986;28;20651;-34
2022/04/09 00:54:29;;;;;;;2.65;1.38;;;9.70;43.20;;;;;;5053251;28;20655;-34
2022/04/09 00:57:01;;;;;;;1.70;1.10;;;9.80;43.00;;;;;;5053075;28;20795;-34
2022/04/09 00:59:30;;;;;;;1.90;0.80;;;9.70;42.90;;;;;;5053494;28;20165;-34
2022/04/09 01:01:56;;;;;;;2.00;1.02;;;9.70;43.30;;;;;;5052788;28;20185;-34
2022/04/09 01:04:23;;;;;;;4.75;1.65;;;9.80;43.20;;;;;;5052132;28;20289;-34
2022/04/09 01:06:49;;;;;;;4.72;3.00;;;9.70;43.10;;;;;;5053073;28;20626;-34
2022/04/09 01:09:15;;;;;;;3.25;1.90;;;9.80;42.90;;;;;;5053276;28;20227;-34
2022/04/09 01:11:41;;;;;;;2.70;1.50;;;9.80;43.20;;;;;;5052952;28;20192;-34
2022/04/09 01:14:07;;;;;;;1.20;0.57;;;9.80;43.90;;;;;;5052883;28;20189;-34
2022/04/09 01:16:33;;;;;;;2.33;1.70;;;9.70;43.20;;;;;;5052688;28;20247;-34
2022/04/09 01:19:00;;;;;;;2.50;1.40;;;9.70;43.40;;;;;;5052987;28;20467;-34
2022/04/09 01:21:26;;;;;;;1.90;1.50;;;9.80;43.50;;;;;;5052476;28;20177;-34
2022/04/09 01:23:53;;;;;;;2.47;1.45;;;9.80;43.30;;;;;;5052716;28;20199;-34
2022/04/09 01:26:19;;;;;;;2.72;2.00;;;9.70;43.30;;;;;;5052577;28;20551;-34
2022/04/09 01:28:47;;;;;;;2.88;1.25;;;9.70;43.20;;;;;;5052647;28;20180;-34
2022/04/09 01:31:13;;;;;;;2.35;1.48;;;9.70;43.20;;;;;;5052487;28;20188;-34
2022/04/09 01:33:39;;;;;;;1.85;1.25;;;9.70;43.00;;;;;;5052588;28;20197;-34
2022/04/09 01:36:05;;;;;;;1.50;0.90;;;9.80;42.90;;;;;;5052609;28;20185;-34
2022/04/09 01:38:31;;;;;;;2.42;1.50;;;9.80;42.70;;;;;;5052505;28;20176;-34
2022/04/09 01:40:57;;;;;;;2.07;1.10;;;9.80;42.60;;;;;;5050650;28;20185;-34
2022/04/09 01:43:22;;;;;;;3.10;1.27;;;9.80;42.80;;;;;;5052061;28;20526;-34
2022/04/09 01:45:48;;;;;;;3.57;1.67;;;9.80;42.60;;;;;;5052192;28;20634;-34
2022/04/09 01:48:14;;;;;;;2.10;1.20;;;9.80;42.70;;;;;;5052214;28;20665;-34
2022/04/09 01:50:40;;;;;;;1.93;1.07;;;9.80;42.60;;;;;;5051995;28;20411;-34
2022/04/09 01:53:06;;;;;;;1.70;1.20;;;9.80;43.20;;;;;;5052384;28;20435;-34
2022/04/09 01:55:32;;;;;;;2.22;1.60;;;9.70;43.20;;;;;;5052235;28;20195;-34
2022/04/09 01:57:58;;;;;;;1.75;1.08;;;9.60;43.20;;;;;;5051982;28;20219;-34
2022/04/09 02:00:24;;;;;;;1.93;1.60;;;9.60;43.20;;;;;;5051857;28;20169;-34
2022/04/09 02:02:51;;;;;;;4.03;0.93;;;9.60;43.10;;;;;;5051869;28;20788;-34
2022/04/09 02:05:17;;;;;;;1.92;1.58;;;9.50;43.10;;;;;;5052060;28;20169;-34
2022/04/09 02:07:43;;;;;;;2.53;1.15;;;9.50;43.10;;;;;;5052086;28;20225;-34
2022/04/09 02:10:10;;;;;;;1.80;1.35;;;9.60;43.10;;;;;;5051888;28;20655;-34
2022/04/09 02:12:36;;;;;;;2.15;1.55;;;9.60;43.20;;;;;;5051971;28;20205;-34
2022/04/09 02:15:07;;;;;;;3.10;1.05;;;9.60;43.20;;;;;;5051812;28;20176;-34
2022/04/09 02:17:35;;;;;;;1.67;0.68;;;9.60;42.90;;;;;;5051749;28;20258;-34
2022/04/09 02:20:02;;;;;;;3.22;2.40;;;9.60;43.10;;;;;;5051808;28;20179;-34
2022/04/09 02:22:36;;;;;;;2.65;1.13;;;9.60;43.20;;;;;;5051775;28;20179;-34
2022/04/09 02:25:10;;;;;;;2.20;1.05;;;9.50;43.00;;;;;;5051803;28;20190;-34
2022/04/09 02:27:35;;;;;;;2.25;1.63;;;9.60;42.90;;;;;;5052109;28;20263;-34
2022/04/09 02:30:03;;;;;;;2.27;1.20;;;9.60;43.10;;;;;;5051739;28;20716;-34
2022/04/09 02:32:29;;;;;;;2.45;1.95;;;9.60;42.70;;;;;;5051495;28;20567;-34
2022/04/09 02:34:56;;;;;;;3.23;1.80;;;9.60;42.50;;;;;;5051765;28;20181;-34
2022/04/09 02:37:22;;;;;;;7.97;1.60;;;9.60;42.70;;;;;;5051612;28;20696;-34
2022/04/09 02:39:48;;;;;;;4.15;1.90;;;9.50;42.40;;;;;;5051613;28;20633;-34
2022/04/09 02:42:14;;;;;;;3.13;2.33;;;9.50;42.70;;;;;;5051315;28;20181;-34
2022/04/09 02:44:40;;;;;;;3.53;2.00;;;9.50;42.60;;;;;;5051650;28;20441;-33
2022/04/09 02:47:07;;;;;;;2.00;1.42;;;9.40;42.90;;;;;;5051844;28;20406;-34
2022/04/09 02:49:33;;;;;;;3.83;2.17;;;9.40;42.80;;;;;;5051636;28;20173;-34
2022/04/09 02:51:58;;;;;;;4.05;2.00;;;9.40;42.70;;;;;;5051380;28;20176;-33
2022/04/09 02:54:24;;;;;;;3.47;1.93;;;9.30;43.20;;;;;;5051666;28;20562;-34
2022/04/09 02:56:50;;;;;;;3.03;1.37;;;9.30;43.90;;;;;;5051704;28;20201;-34
2022/04/09 02:59:16;;;;;;;2.63;1.50;;;9.30;43.30;;;;;;5051816;28;20174;-34
2022/04/09 03:01:46;;;;;;;3.70;2.00;;;9.20;43.60;;;;;;5051150;28;20216;-34
2022/04/09 03:04:13;;;;;;;6.07;1.77;;;9.20;43.40;;;;;;5051465;28;20246;-34
2022/04/09 03:06:38;;;;;;;3.15;2.13;;;9.20;43.40;;;;;;5051418;28;20178;-34
2022/04/09 03:09:04;;;;;;;4.50;1.97;;;9.10;43.90;;;;;;5051566;28;20182;-34
2022/04/09 03:11:30;;;;;;;3.30;2.10;;;9.10;43.80;;;;;;5051126;28;20958;-34
2022/04/09 03:13:56;;;;;;;3.80;1.70;;;9.10;44.10;;;;;;5051427;28;20437;-34
2022/04/09 03:16:22;;;;;;;2.90;1.70;;;9.00;44.20;;;;;;5051350;28;20856;-34
2022/04/09 03:18:48;;;;;;;3.20;1.70;;;9.00;43.90;;;;;;5051569;28;20256;-34
2022/04/09 03:21:14;;;;;;;2.92;1.50;;;9.10;44.20;;;;;;5051127;28;20205;-33
2022/04/09 03:23:39;;;;;;;4.38;2.20;;;9.00;44.30;;;;;;5051146;28;20196;-34
2022/04/09 03:26:06;;;;;;;4.03;2.70;;;9.00;44.40;;;;;;5052209;28;20177;-34
2022/04/09 03:28:32;;;;;;;4.85;2.53;;;9.00;44.40;;;;;;5055126;28;20258;-34
2022/04/09 03:30:58;;;;;;;5.72;2.28;;;9.00;44.70;;;;;;5054637;28;20162;-34
2022/04/09 03:33:25;;;;;;;3.63;2.17;;;9.00;44.40;;;;;;5054673;28;20533;-34
2022/04/09 03:35:50;;;;;;;4.50;1.75;;;9.00;44.30;;;;;;5054700;28;20174;-34
2022/04/09 03:38:16;;;;;;;3.23;2.10;;;9.00;44.30;;;;;;5054836;28;20251;-34
2022/04/09 03:40:42;;;;;;;3.03;1.93;;;9.00;44.70;;;;;;5054636;28;20183;-34
2022/04/09 03:43:08;;;;;;;4.93;2.28;;;8.90;44.70;;;;;;5054565;28;20820;-34
2022/04/09 03:45:34;;;;;;;3.87;1.53;;;9.00;44.60;;;;;;5054760;28;20707;-34
2022/04/09 03:48:00;;;;;;;4.30;2.80;;;8.90;44.50;;;;;;5054484;28;20516;-34
2022/04/09 03:50:27;;;;;;;4.00;2.20;;;8.90;44.50;;;;;;5054485;28;20172;-34
2022/04/09 03:52:52;;;;;;;4.72;3.00;;;9.00;44.30;;;;;;5054483;28;20296;-34
2022/04/09 03:55:18;;;;;;;4.07;2.20;;;9.00;44.10;;;;;;5054643;28;20242;-34
2022/04/09 03:57:44;;;;;;;3.10;2.00;;;9.00;44.10;;;;;;5054271;28;20904;-34
2022/04/09 04:00:11;;;;;;;5.20;2.30;;;9.00;44.20;;;;;;5054523;28;20188;-34
2022/04/09 04:02:37;;;;;;;4.35;2.83;;;9.00;43.90;;;;;;5054246;28;20222;-34
2022/04/09 04:05:03;;;;;;;3.63;1.93;;;9.00;44.00;;;;;;5054476;28;20178;-34
2022/04/09 04:07:30;;;;;;;4.53;2.58;;;9.00;44.50;;;;;;5054120;28;20418;-34
2022/04/09 04:10:00;;;;;;;4.25;2.20;;;8.90;44.70;;;;;;5054321;28;20547;-34
2022/04/09 04:12:28;;;;;;;4.45;2.30;;;8.80;44.90;;;;;;5053778;28;20295;-34
2022/04/09 04:14:54;;;;;;;3.80;2.00;;;8.70;45.30;;;;;;5054026;28;20209;-34
2022/04/09 04:17:19;;;;;;;4.13;2.97;;;8.70;45.60;;;;;;5053930;28;20679;-34
2022/04/09 04:19:45;;;;;;;3.13;2.17;;;8.60;45.80;;;;;;5053866;28;20412;-34
2022/04/09 04:22:11;;;;;;;5.37;2.97;;;8.60;45.50;;;;;;5053856;28;20229;-34
2022/04/09 04:24:37;;;;;;;2.40;1.47;;;8.70;45.60;;;;;;5054004;28;20972;-34
2022/04/09 04:27:07;;;;;;;2.90;2.05;;;8.70;45.50;;;;;;5053901;28;20179;-34
2022/04/09 04:29:34;;;;;;;4.40;2.35;;;8.80;45.10;;;;;;5053873;28;20181;-34
2022/04/09 04:32:00;;;;;;;3.58;2.08;;;9.00;44.70;;;;;;5053476;28;20175;-34
2022/04/09 04:34:26;;;;;;;2.55;1.85;;;8.90;44.50;;;;;;5053772;28;20216;-34
2022/04/09 04:36:51;;;;;;;2.97;1.37;;;8.90;44.60;;;;;;5053603;28;20203;-34
2022/04/09 04:39:17;;;;;;;2.40;1.83;;;9.00;44.20;;;;;;5053770;28;20665;-34
2022/04/09 04:41:43;;;;;;;3.67;1.90;;;9.00;44.20;;;;;;5053368;28;20817;-34
2022/04/09 04:44:10;;;;;;;3.20;1.93;;;9.00;43.90;;;;;;5053199;28;20324;-34
2022/04/09 04:46:36;;;;;;;5.32;1.50;;;9.00;43.70;;;;;;5053641;28;20175;-34
2022/04/09 04:49:03;;;;;;;2.03;1.20;;;9.10;43.60;;;;;;5053637;28;20181;-34
2022/04/09 04:51:29;;;;;;;2.67;1.70;;;9.10;43.70;;;;;;5053472;28;20180;-34
2022/04/09 04:53:55;;;;;;;2.60;1.50;;;9.00;43.60;;;;;;5053190;28;20703;-34
2022/04/09 04:56:23;;;;;;;4.17;2.07;;;9.00;43.80;;;;;;5053270;28;20176;-34
2022/04/09 04:58:49;;;;;;;3.00;2.30;;;9.00;43.70;;;;;;5053213;28;20418;-34
2022/04/09 05:01:15;;;;;;;2.58;2.13;;;9.00;43.70;;;;;;5052935;28;20200;-34
2022/04/09 05:03:41;;;;;;;7.93;2.83;;;9.10;43.50;;;;;;5053065;28;20192;-34
2022/04/09 05:06:07;;;;;;;3.20;1.60;;;9.00;43.90;;;;;;5053235;28;20172;-34
2022/04/09 05:08:33;;;;;;;2.80;1.60;;;8.90;43.80;;;;;;5053297;28;20174;-34
2022/04/09 05:10:58;;;;;;;4.03;2.40;;;8.80;44.30;;;;;;5052707;28;20401;-34
2022/04/09 05:13:24;;;;;;;3.30;1.60;;;8.80;44.10;;;;;;5052797;28;20423;-34
2022/04/09 05:15:50;;;;;;;2.17;1.57;;;8.90;44.20;;;;;;5052862;28;20516;-34
2022/04/09 05:18:16;;;;;;;2.03;0.90;;;9.00;44.30;;;;;;5052667;28;20276;-34
2022/04/09 05:20:41;;;;;;;2.20;1.83;;;8.90;44.00;;;;;;5052636;28;20831;-34
2022/04/09 05:23:07;;;;;;;5.13;2.00;;;9.00;44.10;;;;;;5052898;28;20511;-34
2022/04/09 05:25:33;;;;;;;3.00;1.33;;;8.90;44.10;;;;;;5052964;28;20673;-34
2022/04/09 05:28:08;;;;;;;9.13;1.73;;;9.00;43.90;;;;;;5052551;28;20762;-33
2022/04/09 05:30:34;;;;;;;4.75;2.28;;;9.10;44.00;;;;;;5052332;28;20188;-34
2022/04/09 05:33:01;;;;;;;4.55;1.45;;;9.10;43.70;;;;;;5052652;28;20594;-34
2022/04/09 05:35:26;;;;;;;2.33;1.38;;;9.10;43.70;;;;;;5052475;28;20177;-34
2022/04/09 05:37:52;;;;;;;5.43;2.00;;;9.20;43.50;;;;;;5052665;28;20559;-34
2022/04/09 05:40:19;;;;;;;2.20;1.20;;;9.30;43.50;;;;;;5052321;28;20182;-34
2022/04/09 05:42:45;;;;;;;2.58;1.70;;;9.40;43.20;;;;;;5051859;28;20446;-34
2022/04/09 05:45:11;;;;;;;5.13;1.85;;;9.40;43.00;;;;;;5052244;28;20177;-34
2022/04/09 05:47:45;;;;;;;2.13;1.70;;;9.40;43.00;;;;;;5052286;28;20520;-34
2022/04/09 05:50:11;;;;;;;1.73;1.33;;;9.50;43.00;;;;;;5051866;28;20257;-34
2022/04/09 05:52:38;;;;;;;3.03;1.70;;;9.70;42.60;;;;;;5051923;28;20196;-33
2022/04/09 05:55:05;;;;;;;4.80;1.20;;;9.70;42.40;;;;;;5052419;28;20185;-34
2022/04/09 05:57:31;;;;;;;3.15;1.55;;;9.80;41.90;;;;;;5052028;28;20700;-34
2022/04/09 05:59:57;;;;;;;4.00;2.20;;;9.90;41.60;;;;;;5051986;28;20181;-34
2022/04/09 06:02:23;;;;;;;3.83;1.67;;;10.00;41.80;;;;;;5051805;28;20250;-34
2022/04/09 06:04:49;;;;;;;5.50;1.20;;;10.20;41.20;;;;;;5052345;28;20635;-34
2022/04/09 06:07:15;;;;;;;1.40;1.00;;;10.20;41.00;;;;;;5052256;28;20196;-34
2022/04/09 06:09:41;;;;;;;2.00;1.80;;;10.30;41.10;;;;;;5051988;28;20716;-34
2022/04/09 06:12:09;;;;;;;1.70;1.15;;;10.30;39.60;;;;;;5051680;28;20180;-34
2022/04/09 06:14:35;;;;;;;3.38;1.45;;;10.10;40.50;;;;;;5052035;28;20204;-34
2022/04/09 06:17:01;;;;;;;3.55;1.52;;;10.10;40.20;;;;;;5050828;28;20215;-34
2022/04/09 06:19:27;;;;;;;1.58;1.20;;;10.20;40.60;;;;;;5043629;28;20200;-34
2022/04/09 06:21:53;;;;;;;2.70;1.50;;;10.30;40.60;;;;;;5051640;28;20238;-34
2022/04/09 06:24:18;;;;;;;1.80;1.20;;;10.20;39.90;;;;;;5051758;28;20506;-34
2022/04/09 06:26:44;;;;;;;3.33;1.70;;;10.20;40.10;;;;;;5051774;28;20276;-34
2022/04/09 06:29:10;;;;;;;2.70;1.63;;;10.00;40.60;;;;;;5051677;28;20333;-34
2022/04/09 06:31:35;;;;;;;1.80;1.40;;;10.00;41.40;;;;;;5051437;28;20190;-34
2022/04/09 06:34:01;;;;;;;2.10;1.27;;;9.80;39.80;;;;;;5051748;28;20204;-33
2022/04/09 06:36:27;;;;;;;3.67;1.43;;;9.70;41.10;;;;;;5051577;28;20179;-34
2022/04/09 06:38:53;;;;;;;1.50;0.87;;;9.80;40.70;;;;;;5051919;28;20260;-34
2022/04/09 06:41:19;;;;;;;3.20;1.33;;;9.90;41.00;;;;;;5051724;28;20176;-34
2022/04/09 06:43:46;;;;;;;15.18;1.88;;;10.10;40.70;;;;;;5051513;28;20235;-34
2022/04/09 06:46:12;;;;;;;2.08;1.40;;;10.10;39.70;;;;;;5051862;28;20179;-34
2022/04/09 06:48:38;;;;;;;1.80;1.10;;;10.10;39.50;;;;;;5051680;28;20702;-34
2022/04/09 06:51:04;;;;;;;2.03;1.00;;;10.20;39.30;;;;;;5050884;28;20945;-34
2022/04/09 06:53:29;;;;;;;2.60;1.50;;;10.20;38.90;;;;;;5051402;28;20721;-34
2022/04/09 06:55:55;;;;;;;1.90;0.90;;;10.30;39.30;;;;;;5051363;28;20264;-34
2022/04/09 06:58:21;;;;;;;1.50;0.90;;;10.50;39.50;;;;;;5051459;28;20204;-34
2022/04/09 07:00:47;;;;;;;4.10;1.10;;;10.60;38.10;;;;;;5051717;28;20209;-34
2022/04/09 07:03:13;;;;;;;3.00;1.13;;;10.60;38.00;;;;;;5055276;28;20453;-34
2022/04/09 07:05:40;;;;;;;3.38;1.05;;;10.60;38.40;;;;;;5055578;28;20231;-34
2022/04/09 07:08:08;;;;;;;3.78;0.80;;;10.60;37.20;;;;;;5055306;28;20259;-34
2022/04/09 07:10:34;;;;;;;2.83;1.15;;;10.40;37.60;;;;;;5054840;28;20722;-34
2022/04/09 07:13:00;;;;;;;1.55;0.95;;;10.50;38.10;;;;;;5055060;28;20279;-34
2022/04/09 07:15:25;;;;;;;2.50;0.97;;;10.40;37.40;;;;;;5055514;28;20173;-34
2022/04/09 07:17:51;;;;;;;1.80;1.10;;;10.30;38.10;;;;;;5055208;28;20199;-34
2022/04/09 07:20:17;;;;;;;2.80;0.90;;;10.40;39.20;;;;;;5054870;28;20656;-34
2022/04/09 07:22:43;;;;;;;2.30;1.07;;;10.30;38.00;;;;;;5054739;28;20510;-34
2022/04/09 07:25:10;;;;;;;1.85;1.33;;;10.20;39.60;;;;;;5054864;28;20173;-34
2022/04/09 07:27:47;;;;;;;3.03;1.25;;;10.10;41.00;;;;;;5054781;28;20635;-34
2022/04/09 07:30:17;;;;;;;1.50;0.80;;;9.70;42.80;;;;;;5054951;28;20183;-34
2022/04/09 07:32:43;;;;;;;1.70;1.10;;;9.50;42.30;;;;;;5054472;28;20204;-34
2022/04/09 07:35:10;;;;;;;1.73;0.75;;;9.20;42.10;;;;;;5054857;28;20209;-34
2022/04/09 07:37:44;;;;;;;8.05;1.67;;;9.10;42.90;;;;;;5054645;28;20291;-34
2022/04/09 07:40:11;;;;;;;3.47;1.75;;;8.90;43.80;;;;;;5054969;28;20316;-34
2022/04/09 07:42:38;;;;;;;2.25;1.55;;;8.80;44.70;;;;;;5054311;28;20291;-33
2022/04/09 07:45:05;;;;;;;2.58;1.73;;;8.80;44.80;;;;;;5054479;28;20178;-34
2022/04/09 07:47:31;;;;;;;2.28;1.23;;;8.90;45.70;;;;;;5054779;28;20186;-34
2022/04/09 07:49:57;;;;;;;2.67;1.40;;;8.90;46.50;;;;;;5054520;28;20564;-34
2022/04/09 07:52:23;;;;;;;3.88;1.92;;;9.20;46.70;;;;;;5054023;28;20180;-34
2022/04/09 07:54:49;;;;;;;4.27;3.03;;;9.30;45.70;;;;;;5054241;28;20182;-34
2022/04/09 07:57:14;;;;;;;4.10;2.80;;;9.60;45.60;;;;;;5054525;28;20225;-33
2022/04/09 07:59:40;;;;;;;6.37;2.70;;;9.70;45.40;;;;;;5054371;28;20243;-34
2022/04/09 08:02:06;;;;;;;4.63;3.10;;;9.90;45.40;;;;;;5053956;28;20165;-34
2022/04/09 08:04:32;;;;;;;3.43;2.40;;;10.00;45.70;;;;;;5054389;28;20204;-34
2022/04/09 08:06:57;;;;;;;5.43;3.33;;;10.10;45.20;;;;;;5054049;28;20531;-33
2022/04/09 08:09:23;;;;;;;2.97;2.47;;;9.70;44.70;;;;;;5054080;28;20173;-33
2022/04/09 08:11:49;;;;;;;7.67;2.60;;;9.40;46.30;;;;;;5052184;28;20268;-33
2022/04/09 08:14:15;;;;;;;3.97;2.40;;;9.30;45.80;;;;;;5054084;28;20204;-33
2022/04/09 08:16:41;;;;;;;3.40;2.80;;;9.20;46.50;;;;;;5054198;28;20201;-34
2022/04/09 08:19:07;;;;;;;4.60;3.47;;;9.10;47.10;;;;;;5053928;28;20252;-33
2022/04/09 08:21:33;;;;;;;4.32;2.38;;;9.10;47.70;;;;;;5053568;28;20226;-35
2022/04/09 08:23:59;;;;;;;4.40;3.72;;;9.20;47.20;;;;;;5053959;28;20235;-35
2022/04/09 08:26:24;;;;;;;4.03;2.30;;;9.30;47.60;;;;;;5053961;28;20181;-36
2022/04/09 08:28:50;;;;;;;5.83;2.53;;;9.40;46.90;;;;;;5053918;28;20550;-35
2022/04/09 08:31:16;;;;;;;3.65;3.20;;;9.60;46.80;;;;;;5053257;28;20577;-35
2022/04/09 08:33:42;;;;;;;5.63;3.70;;;9.80;48.30;;;;;;5053582;28;20193;-36
2022/04/09 08:36:08;;;;;;;4.73;3.40;;;10.10;48.60;;;;;;5053513;28;20233;-36
2022/04/09 08:38:34;;;;;;;5.70;3.58;;;10.40;47.40;;;;;;5053699;28;20497;-36
2022/04/09 08:41:03;;;;;;;5.80;3.07;;;10.70;47.40;;;;;;5053553;28;20177;-36
2022/04/09 08:43:33;;;;;;;4.25;3.50;;;10.90;46.80;;;;;;5053306;28;20674;-34
2022/04/09 08:46:02;;;;;;;4.63;3.28;;;11.10;44.50;;;;;;5053448;28;20297;-34
2022/04/09 08:48:28;;;;;;;6.53;3.60;;;11.30;46.50;;;;;;5053312;28;20719;-34
2022/04/09 08:50:54;;;;;;;4.97;2.88;;;11.60;44.70;;;;;;5053087;28;20548;-34
2022/04/09 08:53:21;;;;;;;4.15;2.42;;;11.50;43.50;;;;;;5053112;28;20663;-34
2022/04/09 08:55:48;;;;;;;3.10;2.80;;;11.40;43.80;;;;;;5053234;28;20260;-34
2022/04/09 08:58:14;;;;;;;3.50;2.15;;;11.50;44.00;;;;;;5053350;28;20345;-34
2022/04/09 09:00:40;;;;;;;5.32;2.45;;;11.60;41.50;;;;;;5052903;28;20177;-34
2022/04/09 09:03:10;;;;;;;2.40;1.90;;;11.40;43.00;;;;;;5053268;28;20196;-34
2022/04/09 09:05:45;;;;;;;3.40;2.30;;;11.30;42.40;;;;;;5052889;28;20555;-34
2022/04/09 09:08:12;;;;;;;3.05;2.65;;;11.40;42.20;;;;;;5053154;28;20218;-34
2022/04/09 09:10:38;;;;;;;4.70;2.03;;;11.50;42.10;;;;;;5053045;28;20184;-34
2022/04/09 09:13:11;;;;;;;2.65;1.58;;;11.50;41.90;;;;;;5052838;28;20204;-34
2022/04/09 09:15:52;;;;;;;2.50;2.10;;;11.80;41.60;;;;;;5052811;28;20216;-36
2022/04/09 09:18:22;;;;;;;3.15;1.48;;;12.30;40.80;;;;;;5052707;28;20222;-36
2022/04/09 09:20:53;;;;;;;2.85;1.75;;;12.60;39.20;;;;;;5052769;28;20165;-36
2022/04/09 09:23:23;;;;;;;2.33;1.25;;;12.90;38.10;;;;;;5052183;28;20217;-36
2022/04/09 09:25:54;;;;;;;1.90;1.10;;;13.20;37.90;;;;;;5052993;28;20185;-36
2022/04/09 09:28:30;;;;;;;1.65;0.88;;;13.50;34.60;;;;;;5052619;28;20165;-36
2022/04/09 09:30:58;;;;;;;2.22;1.30;;;13.40;32.70;;;;;;5052317;28;20212;-36
2022/04/09 09:33:25;;;;;;;1.88;1.00;;;13.10;32.40;;;;;;5052763;28;20201;-36
2022/04/09 09:35:56;;;;;;;2.25;1.30;;;12.70;34.00;;;;;;5052572;28;20256;-36
2022/04/09 09:38:27;;;;;;;2.08;1.40;;;12.60;36.90;;;;;;5052743;28;20250;-36
2022/04/09 09:40:54;;;;;;;3.10;1.38;;;12.90;35.50;;;;;;5052117;28;20579;-36
2022/04/09 09:43:22;;;;;;;3.08;1.40;;;13.00;35.40;;;;;;5052087;28;20676;-36
2022/04/09 09:45:50;;;;;;;2.83;1.20;;;12.90;34.00;;;;;;5052466;28;20293;-36
2022/04/09 09:48:26;;;;;;;1.63;0.85;;;12.60;35.40;;;;;;5052367;28;20173;-36
2022/04/09 09:50:54;;;;;;;1.90;0.77;;;12.20;35.90;;;;;;5052316;28;20587;-36
2022/04/09 09:53:34;;;;;;;1.90;0.90;;;12.00;37.50;;;;;;5052080;28;20597;-36
2022/04/09 09:56:01;;;;;;;1.45;0.93;;;12.30;37.70;;;;;;5052422;28;20287;-36
2022/04/09 09:58:28;;;;;;;2.72;1.35;;;12.60;37.70;;;;;;5052010;28;20212;-36
2022/04/09 10:00:58;;;;;;;2.15;1.17;;;13.10;38.30;;;;;;5051884;28;20670;-36
2022/04/09 10:03:25;;;;;;;5.22;2.40;;;13.60;38.40;;;;;;5050681;28;20200;-36
2022/04/09 10:05:51;;;;;;;1.80;1.20;;;14.10;37.70;;;;;;5052188;28;20189;-36
2022/04/09 10:08:18;;;;;;;1.50;0.77;;;14.40;36.00;;;;;;5051917;28;20170;-36
2022/04/09 10:10:50;;;;;;;1.85;1.40;;;14.50;33.90;;;;;;5051328;28;20643;-36
2022/04/09 10:13:24;;;;;;;2.25;1.58;;;14.50;33.60;;;;;;5051872;28;20220;-36
2022/04/09 10:15:51;;;;;;;6.78;1.17;;;14.40;31.80;;;;;;5051897;28;20185;-36
2022/04/09 10:18:24;;;;;;;3.25;0.95;;;14.10;31.80;;;;;;5051707;28;20197;-36
2022/04/09 10:20:59;;;;;;;2.25;1.42;;;13.50;30.80;;;;;;5051577;28;20193;-36
2022/04/09 10:23:27;;;;;;;1.60;0.65;;;13.10;33.70;;;;;;5051565;28;20200;-36
2022/04/09 10:25:53;;;;;;;1.25;0.63;;;13.10;33.60;;;;;;5051661;28;20165;-36
2022/04/09 10:28:50;;;;;;;1.85;1.50;;;13.20;34.80;;;;;;5052094;28;20181;-36
2022/04/09 10:31:28;;;;;;;2.83;0.85;;;13.30;36.00;;;;;;5042912;28;20181;-36
2022/04/09 10:33:55;;;;;;;1.83;1.10;;;13.20;36.30;;;;;;5051537;28;20247;-36
2022/04/09 10:36:40;;;;;;;1.95;0.75;;;13.00;36.40;;;;;;5054614;28;20574;-36
2022/04/09 10:39:39;;;;;;;2.42;0.85;;;12.70;36.90;;;;;;5055790;28;20954;-36
2022/04/09 10:42:09;;;;;;;6.13;1.60;;;12.40;37.60;;;;;;5055797;28;20162;-36
2022/04/09 10:44:43;;;;;;;1.88;1.27;;;12.30;38.20;;;;;;5055627;28;20192;-36
2022/04/09 10:47:11;;;;;;;2.40;1.35;;;12.30;39.10;;;;;;5055954;28;20168;-36
2022/04/09 10:49:38;;;;;;;1.58;0.95;;;12.40;39.70;;;;;;5055560;28;20204;-36
2022/04/09 10:52:05;;;;;;;1.75;0.80;;;12.80;40.90;;;;;;5055509;28;20346;-36
2022/04/09 10:54:32;;;;;;;1.55;1.00;;;13.00;40.00;;;;;;5055657;28;20204;-36
2022/04/09 10:57:07;;;;;;;1.67;0.90;;;13.40;40.30;;;;;;5055497;28;20212;-36
2022/04/09 10:59:34;;;;;;;2.55;1.10;;;13.60;40.00;;;;;;5055399;28;20171;-36
2022/04/09 11:02:02;;;;;;;5.47;0.77;;;13.70;38.90;;;;;;5054982;28;20238;-34
2022/04/09 11:07:19;;;;;;;1.60;0.50;;;13.20;36.20;;;;;;5055306;28;20526;-34
2022/04/09 11:09:58;;;;;;;5.82;0.95;;;12.60;36.80;;;;;;5055394;28;20630;-34
2022/04/09 11:12:29;;;;;;;1.40;0.60;;;12.00;38.10;;;;;;5054874;28;20553;-34
2022/04/09 11:14:57;;;;;;;1.40;1.00;;;11.80;38.70;;;;;;5055102;28;20173;-34
2022/04/09 11:17:38;;;;;;;1.73;0.85;;;11.80;41.20;;;;;;5055377;28;20208;-34
2022/04/09 11:20:13;;;;;;;3.95;0.95;;;12.00;41.50;;;;;;5055116;28;20229;-34
2022/04/09 11:22:41;;;;;;;1.23;0.47;;;12.10;41.70;;;;;;5054799;28;20223;-34
2022/04/09 11:25:21;;;;;;;1.50;0.90;;;12.40;39.70;;;;;;5055222;28;20181;-34
2022/04/09 11:27:47;;;;;;;1.45;0.63;;;12.70;42.80;;;;;;5055090;28;20182;-34
2022/04/09 11:30:14;;;;;;;1.50;0.90;;;13.10;41.90;;;;;;5054816;28;20248;-34
2022/04/09 11:32:39;;;;;;;1.60;0.90;;;13.50;43.00;;;;;;5054606;28;20988;-34
2022/04/09 11:35:10;;;;;;;1.47;0.67;;;13.80;42.40;;;;;;5054714;28;20217;-34
2022/04/09 11:37:43;;;;;;;1.50;0.90;;;14.30;39.70;;;;;;5053639;28;20205;-34
2022/04/09 11:40:11;;;;;;;1.95;1.02;;;14.60;38.10;;;;;;5054614;28;20173;-34
2022/04/09 11:43:03;;;;;;;2.30;1.42;;;14.80;38.90;;;;;;5054210;28;20655;-34
2022/04/09 11:45:31;;;;;;;2.03;0.80;;;15.30;39.00;;;;;;5052545;28;20184;-34
2022/04/09 11:48:02;;;;;;;2.10;1.17;;;15.30;35.60;;;;;;5053647;28;20192;-34
2022/04/09 11:50:39;;;;;;;3.15;1.02;;;15.10;32.40;;;;;;5054495;28;20258;-34
2022/04/09 11:53:20;;;;;;;1.65;1.05;;;14.40;33.80;;;;;;5054333;28;20227;-34
2022/04/09 11:55:47;;;;;;;5.93;1.23;;;14.00;33.80;;;;;;5054403;28;20651;-34
2022/04/09 11:58:14;;;;;;;1.38;0.70;;;13.20;33.90;;;;;;5053829;28;20228;-34
2022/04/09 12:00:46;;;;;;;1.20;0.40;;;12.60;35.50;;;;;;5054001;28;20173;-34
2022/04/09 12:03:12;;;;;;;1.70;0.80;;;12.00;36.40;;;;;;5054477;28;20194;-34
2022/04/09 12:05:46;;;;;;;1.45;0.80;;;11.60;37.80;;;;;;5054524;28;20197;-34
2022/04/09 12:08:22;;;;;;;1.73;0.90;;;11.20;38.10;;;;;;5054172;28;20181;-34
2022/04/09 12:10:53;;;;;;;1.60;0.88;;;11.10;39.80;;;;;;5054132;28;20534;-34
2022/04/09 12:13:28;;;;;;;2.17;1.25;;;11.30;39.30;;;;;;5054094;28;20199;-34
2022/04/09 12:16:14;;;;;;;1.35;0.93;;;11.60;40.30;;;;;;5053695;28;20181;-34
2022/04/09 12:18:41;;;;;;;3.00;0.88;;;12.10;41.10;;;;;;5047142;28;20209;-34
2022/04/09 12:21:24;;;;;;;1.80;1.30;;;12.60;39.50;;;;;;5053672;28;20182;-34
2022/04/09 12:24:11;;;;;;;2.00;1.55;;;13.20;39.30;;;;;;5053916;28;20193;-34
2022/04/09 12:26:42;;;;;;;1.20;0.70;;;13.70;36.20;;;;;;5053809;28;20188;-34
2022/04/09 12:29:20;;;;;;;1.40;0.57;;;14.10;35.70;;;;;;5052834;28;20180;-34
2022/04/09 12:31:48;;;;;;;1.10;0.40;;;14.50;34.60;;;;;;5053586;28;20196;-34
2022/04/09 12:34:15;;;;;;;1.30;0.73;;;14.30;31.30;;;;;;5053547;28;20209;-34
2022/04/09 12:37:05;;;;;;;1.10;0.30;;;13.80;28.50;;;;;;5053619;28;20541;-34
2022/04/09 12:39:33;;;;;;;1.10;0.32;;;13.20;32.10;;;;;;5053555;28;20647;-34
2022/04/09 12:41:59;;;;;;;1.20;0.30;;;13.00;31.00;;;;;;5053242;28;20184;-34
2022/04/09 12:44:33;;;;;;;1.50;0.50;;;12.90;32.50;;;;;;5052183;28;20212;-34
2022/04/09 12:47:00;;;;;;;1.40;0.95;;;12.90;32.30;;;;;;5051451;28;20173;-34
2022/04/09 12:49:30;;;;;;;3.50;0.93;;;13.20;33.20;;;;;;5051769;28;20181;-34
2022/04/09 12:51:57;;;;;;;1.35;0.60;;;13.70;33.70;;;;;;5051007;28;20169;-34
2022/04/09 12:54:23;;;;;;;1.30;0.65;;;14.20;31.60;;;;;;5050173;28;20201;-36
2022/04/09 12:56:49;;;;;;;1.60;0.70;;;14.60;32.90;;;;;;5051294;28;20192;-36
2022/04/09 12:59:15;;;;;;;3.45;0.50;;;15.10;33.10;;;;;;5051030;28;21139;-36